Westerly — VG3832 — position and weather

sailwx.info

Track history (hours):
 
Tides and Currents Weather Stations Pressure Air Temp Water Temp Dewpoint Dewpoint Depression Visibility Wind Speed Wind Dir Waves Ship Positions

Westerly

Last reported at 2018-Jan-28 16:15 UTC. Time now 2018-Feb-18 06:38 UTC.
Position N 49°08' W 125°56'.
Warning: this ship's position is 20 days out of date.

Length 17 m; draft 3 m.

Type: Fishing. MMSI: 316003050.

Date/timePositionNaut miles runAvg speedWind from/ knotsBaromVisibWave heightAir tempDewpointWater temp
2018-Jan-28 16:15N 49°08' W 125°56'1 5.3
2018-Jan-28 16:00N 49°07' W 125°55'2 0.0
2018-Jan-27 05:10N 49°09' W 125°56'2 6.8
2018-Jan-27 04:56N 49°07' W 125°55'7 5.2
2018-Jan-27 03:31N 49°05' W 126°05'0 5.9
2018-Jan-27 03:30N 49°05' W 126°06'3 6.4
2018-Jan-27 02:59N 49°02' W 126°09'14 0.8
2018-Jan-26 09:54N 48°48' W 126°08'3 5.1
2018-Jan-26 09:24N 48°49' W 126°04'2 5.3
2018-Jan-26 08:56N 48°49' W 126°00'2 5.0
2018-Jan-26 08:27N 48°50' W 125°57'2 5.1
2018-Jan-26 08:00N 48°51' W 125°54'3 5.4
2018-Jan-26 07:31N 48°52' W 125°50'3 6.0
2018-Jan-26 07:00N 48°53' W 125°46'3 6.2
2018-Jan-26 06:30N 48°53' W 125°41'3 6.2
2018-Jan-26 06:00N 48°54' W 125°36'3 6.2
2018-Jan-26 05:31N 48°55' W 125°32'2 4.2
2018-Jan-26 05:01N 48°57' W 125°32'0 0.9
2018-Jan-26 04:31N 48°57' W 125°33'0 0.0
2018-Jan-26 04:00N 48°57' W 125°33'0 0.0
2018-Jan-26 03:30N 48°57' W 125°33'0 0.0
2018-Jan-26 03:01N 48°57' W 125°33'0 0.0
2018-Jan-26 02:31N 48°57' W 125°33'0 0.0
2018-Jan-26 02:00N 48°57' W 125°33'0 0.0
2018-Jan-26 01:30N 48°57' W 125°33'0 0.0
2018-Jan-26 01:00N 48°57' W 125°33'0 0.0
2018-Jan-26 00:30N 48°57' W 125°33'0 0.0
2018-Jan-26 00:00N 48°57' W 125°33'0 0.0
2018-Jan-25 23:30N 48°57' W 125°33'0 0.4
2018-Jan-25 23:00N 48°57' W 125°33'1 1.1
2018-Jan-25 22:30N 48°56' W 125°32'0 0.0
2018-Jan-25 22:00N 48°56' W 125°32'1 1.4
2018-Jan-25 21:30N 48°57' W 125°33'0 0.0
2018-Jan-25 21:00N 48°57' W 125°33'0 0.0
2018-Jan-25 20:30N 48°57' W 125°33'0 0.0
2018-Jan-25 20:00N 48°57' W 125°33'0 0.0
2018-Jan-25 19:30N 48°57' W 125°33'0 0.0
2018-Jan-25 19:00N 48°57' W 125°33'0 0.0
2018-Jan-25 18:30N 48°57' W 125°33'0 0.0
2018-Jan-25 18:00N 48°57' W 125°33'0 0.0
2018-Jan-25 17:30N 48°57' W 125°33'0 0.0
2018-Jan-25 17:00N 48°57' W 125°33'0 0.3
2018-Jan-25 16:30N 48°57' W 125°33'0 0.0
2018-Jan-25 16:00N 48°57' W 125°33'0 0.0
2018-Jan-25 15:30N 48°57' W 125°33'0 0.0
2018-Jan-25 15:00N 48°57' W 125°33'0 0.0
2018-Jan-25 14:30N 48°57' W 125°33'0 0.0
2018-Jan-25 14:00N 48°57' W 125°33'0 0.0
2018-Jan-25 13:30N 48°57' W 125°33'0 0.0
2018-Jan-25 13:00N 48°57' W 125°33'0 0.0
2018-Jan-25 12:30N 48°57' W 125°33'0 0.0
2018-Jan-25 12:00N 48°57' W 125°33'0 0.0
2018-Jan-25 11:30N 48°57' W 125°33'0 0.0
2018-Jan-25 11:00N 48°57' W 125°33'0 0.0
2018-Jan-25 10:30N 48°57' W 125°33'0 0.0
2018-Jan-25 10:00N 48°57' W 125°33'0 0.0
2018-Jan-25 09:30N 48°57' W 125°33'0 0.0
2018-Jan-25 09:00N 48°57' W 125°33'0 0.0
2018-Jan-25 08:30N 48°57' W 125°33'0 0.0
2018-Jan-25 08:00N 48°57' W 125°33'0 0.0
2018-Jan-25 07:30N 48°57' W 125°33'0 0.0
2018-Jan-25 07:00N 48°57' W 125°33'0 0.0
2018-Jan-25 06:30N 48°57' W 125°33'0 0.0
2018-Jan-25 06:00N 48°57' W 125°33'0 0.0
2018-Jan-25 05:30N 48°57' W 125°33'0 0.0
2018-Jan-25 05:00N 48°57' W 125°33'0 0.0
2018-Jan-25 04:30N 48°57' W 125°33'0 0.0
2018-Jan-25 04:00N 48°57' W 125°33'0 0.0
2018-Jan-25 03:30N 48°57' W 125°33'0 0.0
2018-Jan-25 03:00N 48°57' W 125°33'0 0.0
2018-Jan-25 02:30N 48°57' W 125°33'0 0.0
2018-Jan-25 02:00N 48°57' W 125°33'0 0.0
2018-Jan-25 01:30N 48°57' W 125°33'0 0.0
2018-Jan-25 01:00N 48°57' W 125°33'0 0.0
2018-Jan-25 00:30N 48°57' W 125°33'0 0.0
2018-Jan-25 00:00N 48°57' W 125°33'0 0.0
2018-Jan-24 23:30N 48°57' W 125°33'0 0.0
2018-Jan-24 23:00N 48°57' W 125°33'0 0.0
2018-Jan-24 22:30N 48°57' W 125°33'0 0.0
2018-Jan-24 22:00N 48°57' W 125°33'0 0.0
2018-Jan-24 21:30N 48°57' W 125°33'0 0.0
2018-Jan-24 21:00N 48°57' W 125°33'0 0.0
2018-Jan-24 20:30N 48°57' W 125°33'0 0.0
2018-Jan-24 20:00N 48°57' W 125°33'0 0.0
2018-Jan-24 19:30N 48°57' W 125°33'0 0.0
2018-Jan-24 19:00N 48°57' W 125°33'0 0.0
2018-Jan-24 18:30N 48°57' W 125°33'0 0.0
2018-Jan-24 18:00N 48°57' W 125°33'0 0.0
2018-Jan-24 17:30N 48°57' W 125°33'0 0.0
2018-Jan-24 17:00N 48°57' W 125°33'0 0.0
2018-Jan-24 16:30N 48°57' W 125°33'0 0.0
2018-Jan-24 16:00N 48°57' W 125°33'0 0.0
2018-Jan-24 15:30N 48°57' W 125°33'0 0.0
2018-Jan-24 15:00N 48°57' W 125°33'0 0.0
2018-Jan-24 14:30N 48°57' W 125°33'0 0.0
2018-Jan-24 14:00N 48°57' W 125°33'0 0.0
2018-Jan-24 13:30N 48°57' W 125°33'0 0.0
2018-Jan-24 13:00N 48°57' W 125°33'0 0.0
2018-Jan-24 12:30N 48°57' W 125°33'0 0.0
2018-Jan-24 12:00N 48°57' W 125°33'0 0.0
2018-Jan-24 11:30N 48°57' W 125°33'0 0.0
2018-Jan-24 11:00N 48°57' W 125°33'0 0.0
2018-Jan-24 10:30N 48°57' W 125°33'0 0.0
2018-Jan-24 10:00N 48°57' W 125°33'0 0.0
2018-Jan-24 09:30N 48°57' W 125°33'0 0.0
2018-Jan-24 09:00N 48°57' W 125°33'0 0.0
2018-Jan-24 08:30N 48°57' W 125°33'0 0.0
2018-Jan-24 08:00N 48°57' W 125°33'0 0.0
2018-Jan-24 07:30N 48°57' W 125°33'0 0.0
2018-Jan-24 07:00N 48°57' W 125°33'0 0.0
2018-Jan-24 06:30N 48°57' W 125°33'0 0.0
2018-Jan-24 06:00N 48°57' W 125°33'0 0.0
2018-Jan-24 05:30N 48°57' W 125°33'0 0.0
2018-Jan-24 05:00N 48°57' W 125°33'0 0.0
2018-Jan-24 04:30N 48°57' W 125°33'0 0.0
2018-Jan-24 04:00N 48°57' W 125°33'0 0.0
2018-Jan-24 03:30N 48°57' W 125°33'0 0.0
2018-Jan-24 03:00N 48°57' W 125°33'0 0.0
2018-Jan-24 02:30N 48°57' W 125°33'0 0.0
2018-Jan-24 02:00N 48°57' W 125°33'0 0.0
2018-Jan-24 01:30N 48°57' W 125°33'0 0.0
2018-Jan-24 01:00N 48°57' W 125°33'0 0.0
2018-Jan-24 00:30N 48°57' W 125°33'0 0.0
2018-Jan-24 00:00N 48°57' W 125°33'0 0.0
2018-Jan-23 23:30N 48°57' W 125°33'0 0.0
2018-Jan-23 23:00N 48°57' W 125°33'0 0.0
2018-Jan-23 22:30N 48°57' W 125°33'0 0.0
2018-Jan-23 22:00N 48°57' W 125°33'0 0.0
2018-Jan-23 21:30N 48°57' W 125°33'0 0.0
2018-Jan-23 21:00N 48°57' W 125°33'0 0.0
2018-Jan-23 20:30N 48°57' W 125°33'0 0.0
2018-Jan-23 20:00N 48°57' W 125°33'0 0.0
2018-Jan-23 19:30N 48°57' W 125°33'0 0.0
2018-Jan-23 19:00N 48°57' W 125°33'0 0.0
2018-Jan-23 18:30N 48°57' W 125°33'0 0.0
2018-Jan-23 18:00N 48°57' W 125°33'0 0.0
2018-Jan-23 17:30N 48°57' W 125°33'0 0.0
2018-Jan-23 17:00N 48°57' W 125°33'0 0.0
2018-Jan-23 16:30N 48°57' W 125°33'0 0.0
2018-Jan-23 16:00N 48°57' W 125°33'0 0.0
2018-Jan-23 15:30N 48°57' W 125°33'0 0.0
2018-Jan-23 15:00N 48°57' W 125°33'0 0.0
2018-Jan-23 14:30N 48°57' W 125°33'0 0.0
2018-Jan-23 14:00N 48°57' W 125°33'0 0.0
2018-Jan-23 13:30N 48°57' W 125°33'0 0.0
2018-Jan-23 13:00N 48°57' W 125°33'0 0.0
2018-Jan-23 12:30N 48°57' W 125°33'0 0.0
2018-Jan-23 12:00N 48°57' W 125°33'0 0.0
2018-Jan-23 11:30N 48°57' W 125°33'0 0.0
2018-Jan-23 11:00N 48°57' W 125°33'0 0.0
2018-Jan-23 10:30N 48°57' W 125°33'0 0.0
2018-Jan-23 10:00N 48°57' W 125°33'0 0.0
2018-Jan-23 09:30N 48°57' W 125°33'0 0.0
2018-Jan-23 09:00N 48°57' W 125°33'0 0.0
2018-Jan-23 08:30N 48°57' W 125°33'0 0.0
2018-Jan-23 08:00N 48°57' W 125°33'0 0.0
2018-Jan-23 07:30N 48°57' W 125°33'0 0.0
2018-Jan-23 07:00N 48°57' W 125°33'0 0.0
2018-Jan-23 06:30N 48°57' W 125°33'0 0.0
2018-Jan-23 06:00N 48°57' W 125°33'0 0.0
2018-Jan-23 05:30N 48°57' W 125°33'0 0.0
2018-Jan-23 05:00N 48°57' W 125°33'0 0.0
2018-Jan-23 04:30N 48°57' W 125°33'0 0.0
2018-Jan-23 04:00N 48°57' W 125°33'0 0.0
2018-Jan-23 03:30N 48°57' W 125°33'0 0.0
2018-Jan-23 03:00N 48°57' W 125°33'0 0.0
2018-Jan-23 02:30N 48°57' W 125°33'0 0.0
2018-Jan-23 02:00N 48°57' W 125°33'0 0.0
2018-Jan-23 01:30N 48°57' W 125°33'0 0.0
2018-Jan-23 01:00N 48°57' W 125°33'0 0.0
2018-Jan-23 00:30N 48°57' W 125°33'0 0.0
2018-Jan-23 00:00N 48°57' W 125°33'0 0.0
2018-Jan-22 23:30N 48°57' W 125°33'0 0.0
2018-Jan-22 23:00N 48°57' W 125°33'0 0.0
2018-Jan-22 22:30N 48°57' W 125°33'0 0.0
2018-Jan-22 22:00N 48°57' W 125°33'0 0.0
2018-Jan-22 21:30N 48°57' W 125°33'0 0.0
2018-Jan-22 21:00N 48°57' W 125°33'0 0.0
2018-Jan-22 20:30N 48°57' W 125°33'0 0.0
2018-Jan-22 20:00N 48°57' W 125°33'0 0.0
2018-Jan-22 19:30N 48°57' W 125°33'0 0.0
2018-Jan-22 19:00N 48°57' W 125°33'0 0.0
2018-Jan-22 18:30N 48°57' W 125°33'0 0.0
2018-Jan-22 18:00N 48°57' W 125°33'0 0.0
2018-Jan-22 17:30N 48°57' W 125°33'0 0.0
2018-Jan-22 17:00N 48°57' W 125°33'0 0.0
2018-Jan-22 16:30N 48°57' W 125°33'0 0.0
2018-Jan-22 16:00N 48°57' W 125°33'0 0.0
2018-Jan-22 15:30N 48°57' W 125°33'0 0.0
2018-Jan-22 15:00N 48°57' W 125°33'0 0.0
2018-Jan-22 14:30N 48°57' W 125°33'0 0.0
2018-Jan-22 14:00N 48°57' W 125°33'0 0.0
2018-Jan-22 13:30N 48°57' W 125°33'0 0.0
2018-Jan-22 13:00N 48°57' W 125°33'0 0.0
2018-Jan-22 12:30N 48°57' W 125°33'0 0.0
2018-Jan-22 12:00N 48°57' W 125°33'0 0.0
2018-Jan-22 11:30N 48°57' W 125°33'0 0.0
2018-Jan-22 11:00N 48°57' W 125°33'0 0.0
2018-Jan-22 10:30N 48°57' W 125°33'0 0.0
2018-Jan-22 10:00N 48°57' W 125°33'0 0.0
2018-Jan-22 09:30N 48°57' W 125°33'0 0.0
2018-Jan-22 09:00N 48°57' W 125°33'0 0.0
2018-Jan-22 08:30N 48°57' W 125°33'0 0.0
2018-Jan-22 08:00N 48°57' W 125°33'0 0.0
2018-Jan-22 07:30N 48°57' W 125°33'0 0.0
2018-Jan-22 07:00N 48°57' W 125°33'0 0.0
2018-Jan-22 06:30N 48°57' W 125°33'0 0.0
2018-Jan-22 06:00N 48°57' W 125°33'0 0.0
2018-Jan-22 05:30N 48°57' W 125°33'0 0.0
2018-Jan-22 05:00N 48°57' W 125°33'0 0.0
2018-Jan-22 04:30N 48°57' W 125°33'0 0.0
2018-Jan-22 04:00N 48°57' W 125°33'0 0.0
2018-Jan-22 03:30N 48°57' W 125°33'0 0.0
2018-Jan-22 03:00N 48°57' W 125°33'0 0.0
2018-Jan-22 02:30N 48°57' W 125°33'0 0.0
2018-Jan-22 02:00N 48°57' W 125°33'0 0.0
2018-Jan-22 01:30N 48°57' W 125°33'0 0.0
2018-Jan-22 01:00N 48°57' W 125°33'0 0.0
2018-Jan-22 00:30N 48°57' W 125°33'0 0.0
2018-Jan-22 00:00N 48°57' W 125°33'0 0.0
2018-Jan-21 23:30N 48°57' W 125°33'0 0.0
2018-Jan-21 23:00N 48°57' W 125°33'0 0.0
2018-Jan-21 22:30N 48°57' W 125°33'0 0.0
2018-Jan-21 22:00N 48°57' W 125°33'0 0.0
2018-Jan-21 21:30N 48°57' W 125°33'0 0.0
2018-Jan-21 21:00N 48°57' W 125°33'0 0.0
2018-Jan-21 20:30N 48°57' W 125°33'0 0.0
2018-Jan-21 20:00N 48°57' W 125°33'0 0.0
2018-Jan-21 19:30N 48°57' W 125°33'0 0.0
2018-Jan-21 19:00N 48°57' W 125°33'0 0.0
2018-Jan-21 18:30N 48°57' W 125°33'0 0.0
2018-Jan-21 18:00N 48°57' W 125°33'0 0.0
2018-Jan-21 17:30N 48°57' W 125°33'0 0.0
2018-Jan-21 17:00N 48°57' W 125°33'0 0.0
2018-Jan-21 16:30N 48°57' W 125°33'0 0.0
2018-Jan-21 16:00N 48°57' W 125°33'0 0.0
2018-Jan-21 15:30N 48°57' W 125°33'0 0.0
2018-Jan-21 15:00N 48°57' W 125°33'0 0.0
2018-Jan-21 14:30N 48°57' W 125°33'0 0.0
2018-Jan-21 14:00N 48°57' W 125°33'0 0.0
2018-Jan-21 13:30N 48°57' W 125°33'0 0.0
2018-Jan-21 13:00N 48°57' W 125°33'0 0.0
2018-Jan-21 12:30N 48°57' W 125°33'0 0.0
2018-Jan-21 12:00N 48°57' W 125°33'0 0.0
2018-Jan-21 11:30N 48°57' W 125°33'0 0.0
2018-Jan-21 11:00N 48°57' W 125°33'0 0.0
2018-Jan-21 10:30N 48°57' W 125°33'0 0.0
2018-Jan-21 10:00N 48°57' W 125°33'0 0.0
2018-Jan-21 09:30N 48°57' W 125°33'0 0.0
2018-Jan-21 09:00N 48°57' W 125°33'0 0.0
2018-Jan-21 08:30N 48°57' W 125°33'0 0.0
2018-Jan-21 08:00N 48°57' W 125°33'0 0.0
2018-Jan-21 07:30N 48°57' W 125°33'0 0.0
2018-Jan-21 07:00N 48°57' W 125°33'0 0.0
2018-Jan-21 06:30N 48°57' W 125°33'0 0.0
2018-Jan-21 06:00N 48°57' W 125°33'0 0.0
2018-Jan-21 05:30N 48°57' W 125°33'0 0.0
2018-Jan-21 05:00N 48°57' W 125°33'0 0.0
2018-Jan-21 04:30N 48°57' W 125°33'0 0.0
2018-Jan-21 04:00N 48°57' W 125°33'0 0.0
2018-Jan-21 03:30N 48°57' W 125°33'0 0.0
2018-Jan-21 03:00N 48°57' W 125°33'0 0.0
2018-Jan-21 02:30N 48°57' W 125°33'0 0.0
2018-Jan-21 02:00N 48°57' W 125°33'0 0.0
2018-Jan-21 01:30N 48°57' W 125°33'0 0.0
2018-Jan-21 01:00N 48°57' W 125°33'0 0.0
2018-Jan-21 00:30N 48°57' W 125°33'0 0.0
2018-Jan-21 00:00N 48°57' W 125°33'0 0.0
2018-Jan-20 23:30N 48°57' W 125°33'0 0.0
2018-Jan-20 23:00N 48°57' W 125°33'0 0.0
2018-Jan-20 22:30N 48°57' W 125°33'0 0.0
2018-Jan-20 22:00N 48°57' W 125°33'0 0.0
2018-Jan-20 21:30N 48°57' W 125°33'0 0.0
2018-Jan-20 21:00N 48°57' W 125°33'0 0.0
2018-Jan-20 20:30N 48°57' W 125°33'0 0.0
2018-Jan-20 20:00N 48°57' W 125°33'0 0.0
2018-Jan-20 19:30N 48°57' W 125°33'0 0.0
2018-Jan-20 19:00N 48°57' W 125°33'0 0.0
2018-Jan-20 18:30N 48°57' W 125°33'0 0.0
2018-Jan-20 18:00N 48°57' W 125°33'0 0.0
2018-Jan-20 17:30N 48°57' W 125°33'0 0.0
2018-Jan-20 17:00N 48°57' W 125°33'0 0.0
2018-Jan-20 16:30N 48°57' W 125°33'0 0.0
2018-Jan-20 16:00N 48°57' W 125°33'0 0.0
2018-Jan-20 15:30N 48°57' W 125°33'0 0.0
2018-Jan-20 15:00N 48°57' W 125°33'0 0.0
2018-Jan-20 14:30N 48°57' W 125°33'0 0.0
2018-Jan-20 14:00N 48°57' W 125°33'0 0.0
2018-Jan-20 13:30N 48°57' W 125°33'0 0.0
2018-Jan-20 13:00N 48°57' W 125°33'0 0.0
2018-Jan-20 12:30N 48°57' W 125°33'0 0.0
2018-Jan-20 12:00N 48°57' W 125°33'0 0.0
2018-Jan-20 11:30N 48°57' W 125°33'0 0.0
2018-Jan-20 11:00N 48°57' W 125°33'0 0.0
2018-Jan-20 10:30N 48°57' W 125°33'0 0.0
2018-Jan-20 10:00N 48°57' W 125°33'0 0.0
2018-Jan-20 09:30N 48°57' W 125°33'0 0.0
2018-Jan-20 09:00N 48°57' W 125°33'0 0.0
2018-Jan-20 08:30N 48°57' W 125°33'0 0.0
2018-Jan-20 08:00N 48°57' W 125°33'0 0.0
2018-Jan-20 07:30N 48°57' W 125°33'0 0.0
2018-Jan-20 07:00N 48°57' W 125°33'0 0.0
2018-Jan-20 06:30N 48°57' W 125°33'0 0.0
2018-Jan-20 06:00N 48°57' W 125°33'0 0.0
2018-Jan-20 05:30N 48°57' W 125°33'0 0.0
2018-Jan-20 05:00N 48°57' W 125°33'0 0.0
2018-Jan-20 04:30N 48°57' W 125°33'0 0.0
2018-Jan-20 04:00N 48°57' W 125°33'0 0.0
2018-Jan-20 03:30N 48°57' W 125°33'0 0.0
2018-Jan-20 03:00N 48°57' W 125°33'0 0.0
2018-Jan-20 02:30N 48°57' W 125°33'0 0.0
2018-Jan-20 02:00N 48°57' W 125°33'0 0.0
2018-Jan-20 01:30N 48°57' W 125°33'0 0.0
2018-Jan-20 01:00N 48°57' W 125°33'0 0.0
2018-Jan-20 00:30N 48°57' W 125°33'0 0.0
2018-Jan-19 23:44N 48°57' W 125°33'0 0.0
2018-Jan-19 23:30N 48°57' W 125°33'0 0.0
2018-Jan-19 23:00N 48°57' W 125°33'0 0.0
2018-Jan-19 22:30N 48°57' W 125°33'0 0.0
2018-Jan-19 22:00N 48°57' W 125°33'0 0.0
2018-Jan-19 21:30N 48°57' W 125°33'0 0.0
2018-Jan-19 21:00N 48°57' W 125°33'0 0.0
2018-Jan-19 20:30N 48°57' W 125°33'0 0.0
2018-Jan-19 20:00N 48°57' W 125°33'0 0.0
2018-Jan-19 19:30N 48°57' W 125°33'0 0.0
2018-Jan-19 19:00N 48°57' W 125°33'0 0.0
2018-Jan-19 18:30N 48°57' W 125°33'0 0.0
2018-Jan-19 18:00N 48°57' W 125°33'0 0.0
2018-Jan-19 17:30N 48°57' W 125°33'0 0.0
2018-Jan-19 17:00N 48°57' W 125°33'0 0.0
2018-Jan-19 16:30N 48°57' W 125°33'0 0.0
2018-Jan-19 16:00N 48°57' W 125°33'0 0.0
2018-Jan-19 15:30N 48°57' W 125°33'0 0.0
2018-Jan-19 15:00N 48°57' W 125°33'0 0.0
2018-Jan-19 14:30N 48°57' W 125°33'0 0.0
2018-Jan-19 14:00N 48°57' W 125°33'0 0.0
2018-Jan-19 13:30N 48°57' W 125°33'0 0.0
2018-Jan-19 13:00N 48°57' W 125°33'0 0.0
2018-Jan-19 12:30N 48°57' W 125°33'0 0.0
2018-Jan-19 12:00N 48°57' W 125°33'0 0.0
2018-Jan-19 11:30N 48°57' W 125°33'0 0.0
2018-Jan-19 11:00N 48°57' W 125°33'0 0.0
2018-Jan-19 10:30N 48°57' W 125°33'0 0.0
2018-Jan-19 10:00N 48°57' W 125°33'0 0.0
2018-Jan-19 09:30N 48°57' W 125°33'0 0.0
2018-Jan-19 09:00N 48°57' W 125°33'0 0.0
2018-Jan-19 08:30N 48°57' W 125°33'0 0.0
2018-Jan-19 08:00N 48°57' W 125°33'0 0.0
2018-Jan-19 07:30N 48°57' W 125°33'0 0.0
2018-Jan-19 07:00N 48°57' W 125°33'0 0.0
2018-Jan-19 06:30N 48°57' W 125°33'0 0.0
2018-Jan-19 06:00N 48°57' W 125°33'0 0.0
2018-Jan-19 05:30N 48°57' W 125°33'0 0.0
2018-Jan-19 05:00N 48°57' W 125°33'0 0.0
2018-Jan-19 04:30N 48°57' W 125°33'0 0.0
2018-Jan-19 04:00N 48°57' W 125°33'0 0.0
2018-Jan-19 03:30N 48°57' W 125°33'0 0.0
2018-Jan-19 03:00N 48°57' W 125°33'0 0.0
2018-Jan-19 02:30N 48°57' W 125°33'0 0.0
2018-Jan-19 02:00N 48°57' W 125°33'0 0.0
2018-Jan-19 01:30N 48°57' W 125°33'0 0.0
2018-Jan-19 01:00N 48°57' W 125°33'0 0.0
2018-Jan-19 00:30N 48°57' W 125°33'0 0.0
2018-Jan-19 00:00N 48°57' W 125°33'0 0.0
2018-Jan-18 23:30N 48°57' W 125°33'0 0.0
2018-Jan-18 23:00N 48°57' W 125°33'0 0.0
2018-Jan-18 22:30N 48°57' W 125°33'0 0.0
2018-Jan-18 22:00N 48°57' W 125°33'0 0.0
2018-Jan-18 21:30N 48°57' W 125°33'0 0.0
2018-Jan-18 21:00N 48°57' W 125°33'0 0.0
2018-Jan-18 20:30N 48°57' W 125°33'0 0.0
2018-Jan-18 20:00N 48°57' W 125°33'0 0.0
2018-Jan-18 19:30N 48°57' W 125°33'0 0.0
2018-Jan-18 19:00N 48°57' W 125°33'0 0.0
2018-Jan-18 18:30N 48°57' W 125°33'0 0.0
2018-Jan-18 18:00N 48°57' W 125°33'0 0.0
2018-Jan-18 17:30N 48°57' W 125°33'0 0.0
2018-Jan-18 17:00N 48°57' W 125°33'0 0.0
2018-Jan-18 16:30N 48°57' W 125°33'  
Track history (hours):
 
Tides and Currents Weather Stations Pressure Air Temp Water Temp Dewpoint Dewpoint Depression Visibility Wind Speed Wind Dir Waves Ship Positions

Westerly

Last reported at 2018-Jan-28 16:15 UTC. Time now 2018-Feb-18 06:38 UTC.
Position N 49°08' W 125°56'.
Warning: this ship's position is 20 days out of date.

Length 17 m; draft 3 m.

Type: Fishing. MMSI: 316003050.

Date/timePositionNaut miles runAvg speedWind from/ knotsBaromVisibWave heightAir tempDewpointWater temp
2018-Jan-28 16:15N 49°08' W 125°56'1 5.3
2018-Jan-28 16:00N 49°07' W 125°55'2 0.0
2018-Jan-27 05:10N 49°09' W 125°56'2 6.8
2018-Jan-27 04:56N 49°07' W 125°55'7 5.2
2018-Jan-27 03:31N 49°05' W 126°05'0 5.9
2018-Jan-27 03:30N 49°05' W 126°06'3 6.4
2018-Jan-27 02:59N 49°02' W 126°09'14 0.8
2018-Jan-26 09:54N 48°48' W 126°08'3 5.1
2018-Jan-26 09:24N 48°49' W 126°04'2 5.3
2018-Jan-26 08:56N 48°49' W 126°00'2 5.0
2018-Jan-26 08:27N 48°50' W 125°57'2 5.1
2018-Jan-26 08:00N 48°51' W 125°54'3 5.4
2018-Jan-26 07:31N 48°52' W 125°50'3 6.0
2018-Jan-26 07:00N 48°53' W 125°46'3 6.2
2018-Jan-26 06:30N 48°53' W 125°41'3 6.2
2018-Jan-26 06:00N 48°54' W 125°36'3 6.2
2018-Jan-26 05:31N 48°55' W 125°32'2 4.2
2018-Jan-26 05:01N 48°57' W 125°32'0 0.9
2018-Jan-26 04:31N 48°57' W 125°33'0 0.0
2018-Jan-26 04:00N 48°57' W 125°33'0 0.0
2018-Jan-26 03:30N 48°57' W 125°33'0 0.0
2018-Jan-26 03:01N 48°57' W 125°33'0 0.0
2018-Jan-26 02:31N 48°57' W 125°33'0 0.0
2018-Jan-26 02:00N 48°57' W 125°33'0 0.0
2018-Jan-26 01:30N 48°57' W 125°33'0 0.0
2018-Jan-26 01:00N 48°57' W 125°33'0 0.0
2018-Jan-26 00:30N 48°57' W 125°33'0 0.0
2018-Jan-26 00:00N 48°57' W 125°33'0 0.0
2018-Jan-25 23:30N 48°57' W 125°33'0 0.4
2018-Jan-25 23:00N 48°57' W 125°33'1 1.1
2018-Jan-25 22:30N 48°56' W 125°32'0 0.0
2018-Jan-25 22:00N 48°56' W 125°32'1 1.4
2018-Jan-25 21:30N 48°57' W 125°33'0 0.0
2018-Jan-25 21:00N 48°57' W 125°33'0 0.0
2018-Jan-25 20:30N 48°57' W 125°33'0 0.0
2018-Jan-25 20:00N 48°57' W 125°33'0 0.0
2018-Jan-25 19:30N 48°57' W 125°33'0 0.0
2018-Jan-25 19:00N 48°57' W 125°33'0 0.0
2018-Jan-25 18:30N 48°57' W 125°33'0 0.0
2018-Jan-25 18:00N 48°57' W 125°33'0 0.0
2018-Jan-25 17:30N 48°57' W 125°33'0 0.0
2018-Jan-25 17:00N 48°57' W 125°33'0 0.3
2018-Jan-25 16:30N 48°57' W 125°33'0 0.0
2018-Jan-25 16:00N 48°57' W 125°33'0 0.0
2018-Jan-25 15:30N 48°57' W 125°33'0 0.0
2018-Jan-25 15:00N 48°57' W 125°33'0 0.0
2018-Jan-25 14:30N 48°57' W 125°33'0 0.0
2018-Jan-25 14:00N 48°57' W 125°33'0 0.0
2018-Jan-25 13:30N 48°57' W 125°33'0 0.0
2018-Jan-25 13:00N 48°57' W 125°33'0 0.0
2018-Jan-25 12:30N 48°57' W 125°33'0 0.0
2018-Jan-25 12:00N 48°57' W 125°33'0 0.0
2018-Jan-25 11:30N 48°57' W 125°33'0 0.0
2018-Jan-25 11:00N 48°57' W 125°33'0 0.0
2018-Jan-25 10:30N 48°57' W 125°33'0 0.0
2018-Jan-25 10:00N 48°57' W 125°33'0 0.0
2018-Jan-25 09:30N 48°57' W 125°33'0 0.0
2018-Jan-25 09:00N 48°57' W 125°33'0 0.0
2018-Jan-25 08:30N 48°57' W 125°33'0 0.0
2018-Jan-25 08:00N 48°57' W 125°33'0 0.0
2018-Jan-25 07:30N 48°57' W 125°33'0 0.0
2018-Jan-25 07:00N 48°57' W 125°33'0 0.0
2018-Jan-25 06:30N 48°57' W 125°33'0 0.0
2018-Jan-25 06:00N 48°57' W 125°33'0 0.0
2018-Jan-25 05:30N 48°57' W 125°33'0 0.0
2018-Jan-25 05:00N 48°57' W 125°33'0 0.0
2018-Jan-25 04:30N 48°57' W 125°33'0 0.0
2018-Jan-25 04:00N 48°57' W 125°33'0 0.0
2018-Jan-25 03:30N 48°57' W 125°33'0 0.0
2018-Jan-25 03:00N 48°57' W 125°33'0 0.0
2018-Jan-25 02:30N 48°57' W 125°33'0 0.0
2018-Jan-25 02:00N 48°57' W 125°33'0 0.0
2018-Jan-25 01:30N 48°57' W 125°33'0 0.0
2018-Jan-25 01:00N 48°57' W 125°33'0 0.0
2018-Jan-25 00:30N 48°57' W 125°33'0 0.0
2018-Jan-25 00:00N 48°57' W 125°33'0 0.0
2018-Jan-24 23:30N 48°57' W 125°33'0 0.0
2018-Jan-24 23:00N 48°57' W 125°33'0 0.0
2018-Jan-24 22:30N 48°57' W 125°33'0 0.0
2018-Jan-24 22:00N 48°57' W 125°33'0 0.0
2018-Jan-24 21:30N 48°57' W 125°33'0 0.0
2018-Jan-24 21:00N 48°57' W 125°33'0 0.0
2018-Jan-24 20:30N 48°57' W 125°33'0 0.0
2018-Jan-24 20:00N 48°57' W 125°33'0 0.0
2018-Jan-24 19:30N 48°57' W 125°33'0 0.0
2018-Jan-24 19:00N 48°57' W 125°33'0 0.0
2018-Jan-24 18:30N 48°57' W 125°33'0 0.0
2018-Jan-24 18:00N 48°57' W 125°33'0 0.0
2018-Jan-24 17:30N 48°57' W 125°33'0 0.0
2018-Jan-24 17:00N 48°57' W 125°33'0 0.0
2018-Jan-24 16:30N 48°57' W 125°33'0 0.0
2018-Jan-24 16:00N 48°57' W 125°33'0 0.0
2018-Jan-24 15:30N 48°57' W 125°33'0 0.0
2018-Jan-24 15:00N 48°57' W 125°33'0 0.0
2018-Jan-24 14:30N 48°57' W 125°33'0 0.0
2018-Jan-24 14:00N 48°57' W 125°33'0 0.0
2018-Jan-24 13:30N 48°57' W 125°33'0 0.0
2018-Jan-24 13:00N 48°57' W 125°33'0 0.0
2018-Jan-24 12:30N 48°57' W 125°33'0 0.0
2018-Jan-24 12:00N 48°57' W 125°33'0 0.0
2018-Jan-24 11:30N 48°57' W 125°33'0 0.0
2018-Jan-24 11:00N 48°57' W 125°33'0 0.0
2018-Jan-24 10:30N 48°57' W 125°33'0 0.0
2018-Jan-24 10:00N 48°57' W 125°33'0 0.0
2018-Jan-24 09:30N 48°57' W 125°33'0 0.0
2018-Jan-24 09:00N 48°57' W 125°33'0 0.0
2018-Jan-24 08:30N 48°57' W 125°33'0 0.0
2018-Jan-24 08:00N 48°57' W 125°33'0 0.0
2018-Jan-24 07:30N 48°57' W 125°33'0 0.0
2018-Jan-24 07:00N 48°57' W 125°33'0 0.0
2018-Jan-24 06:30N 48°57' W 125°33'0 0.0
2018-Jan-24 06:00N 48°57' W 125°33'0 0.0
2018-Jan-24 05:30N 48°57' W 125°33'0 0.0
2018-Jan-24 05:00N 48°57' W 125°33'0 0.0
2018-Jan-24 04:30N 48°57' W 125°33'0 0.0
2018-Jan-24 04:00N 48°57' W 125°33'0 0.0
2018-Jan-24 03:30N 48°57' W 125°33'0 0.0
2018-Jan-24 03:00N 48°57' W 125°33'0 0.0
2018-Jan-24 02:30N 48°57' W 125°33'0 0.0
2018-Jan-24 02:00N 48°57' W 125°33'0 0.0
2018-Jan-24 01:30N 48°57' W 125°33'0 0.0
2018-Jan-24 01:00N 48°57' W 125°33'0 0.0
2018-Jan-24 00:30N 48°57' W 125°33'0 0.0
2018-Jan-24 00:00N 48°57' W 125°33'0 0.0
2018-Jan-23 23:30N 48°57' W 125°33'0 0.0
2018-Jan-23 23:00N 48°57' W 125°33'0 0.0
2018-Jan-23 22:30N 48°57' W 125°33'0 0.0
2018-Jan-23 22:00N 48°57' W 125°33'0 0.0
2018-Jan-23 21:30N 48°57' W 125°33'0 0.0
2018-Jan-23 21:00N 48°57' W 125°33'0 0.0
2018-Jan-23 20:30N 48°57' W 125°33'0 0.0
2018-Jan-23 20:00N 48°57' W 125°33'0 0.0
2018-Jan-23 19:30N 48°57' W 125°33'0 0.0
2018-Jan-23 19:00N 48°57' W 125°33'0 0.0
2018-Jan-23 18:30N 48°57' W 125°33'0 0.0
2018-Jan-23 18:00N 48°57' W 125°33'0 0.0
2018-Jan-23 17:30N 48°57' W 125°33'0 0.0
2018-Jan-23 17:00N 48°57' W 125°33'0 0.0
2018-Jan-23 16:30N 48°57' W 125°33'0 0.0
2018-Jan-23 16:00N 48°57' W 125°33'0 0.0
2018-Jan-23 15:30N 48°57' W 125°33'0 0.0
2018-Jan-23 15:00N 48°57' W 125°33'0 0.0
2018-Jan-23 14:30N 48°57' W 125°33'0 0.0
2018-Jan-23 14:00N 48°57' W 125°33'0 0.0
2018-Jan-23 13:30N 48°57' W 125°33'0 0.0
2018-Jan-23 13:00N 48°57' W 125°33'0 0.0
2018-Jan-23 12:30N 48°57' W 125°33'0 0.0
2018-Jan-23 12:00N 48°57' W 125°33'0 0.0
2018-Jan-23 11:30N 48°57' W 125°33'0 0.0
2018-Jan-23 11:00N 48°57' W 125°33'0 0.0
2018-Jan-23 10:30N 48°57' W 125°33'0 0.0
2018-Jan-23 10:00N 48°57' W 125°33'0 0.0
2018-Jan-23 09:30N 48°57' W 125°33'0 0.0
2018-Jan-23 09:00N 48°57' W 125°33'0 0.0
2018-Jan-23 08:30N 48°57' W 125°33'0 0.0
2018-Jan-23 08:00N 48°57' W 125°33'0 0.0
2018-Jan-23 07:30N 48°57' W 125°33'0 0.0
2018-Jan-23 07:00N 48°57' W 125°33'0 0.0
2018-Jan-23 06:30N 48°57' W 125°33'0 0.0
2018-Jan-23 06:00N 48°57' W 125°33'0 0.0
2018-Jan-23 05:30N 48°57' W 125°33'0 0.0
2018-Jan-23 05:00N 48°57' W 125°33'0 0.0
2018-Jan-23 04:30N 48°57' W 125°33'0 0.0
2018-Jan-23 04:00N 48°57' W 125°33'0 0.0
2018-Jan-23 03:30N 48°57' W 125°33'0 0.0
2018-Jan-23 03:00N 48°57' W 125°33'0 0.0
2018-Jan-23 02:30N 48°57' W 125°33'0 0.0
2018-Jan-23 02:00N 48°57' W 125°33'0 0.0
2018-Jan-23 01:30N 48°57' W 125°33'0 0.0
2018-Jan-23 01:00N 48°57' W 125°33'0 0.0
2018-Jan-23 00:30N 48°57' W 125°33'0 0.0
2018-Jan-23 00:00N 48°57' W 125°33'0 0.0
2018-Jan-22 23:30N 48°57' W 125°33'0 0.0
2018-Jan-22 23:00N 48°57' W 125°33'0 0.0
2018-Jan-22 22:30N 48°57' W 125°33'0 0.0
2018-Jan-22 22:00N 48°57' W 125°33'0 0.0
2018-Jan-22 21:30N 48°57' W 125°33'0 0.0
2018-Jan-22 21:00N 48°57' W 125°33'0 0.0
2018-Jan-22 20:30N 48°57' W 125°33'0 0.0
2018-Jan-22 20:00N 48°57' W 125°33'0 0.0
2018-Jan-22 19:30N 48°57' W 125°33'0 0.0
2018-Jan-22 19:00N 48°57' W 125°33'0 0.0
2018-Jan-22 18:30N 48°57' W 125°33'0 0.0
2018-Jan-22 18:00N 48°57' W 125°33'0 0.0
2018-Jan-22 17:30N 48°57' W 125°33'0 0.0
2018-Jan-22 17:00N 48°57' W 125°33'0 0.0
2018-Jan-22 16:30N 48°57' W 125°33'0 0.0
2018-Jan-22 16:00N 48°57' W 125°33'0 0.0
2018-Jan-22 15:30N 48°57' W 125°33'0 0.0
2018-Jan-22 15:00N 48°57' W 125°33'0 0.0
2018-Jan-22 14:30N 48°57' W 125°33'0 0.0
2018-Jan-22 14:00N 48°57' W 125°33'0 0.0
2018-Jan-22 13:30N 48°57' W 125°33'0 0.0
2018-Jan-22 13:00N 48°57' W 125°33'0 0.0
2018-Jan-22 12:30N 48°57' W 125°33'0 0.0
2018-Jan-22 12:00N 48°57' W 125°33'0 0.0
2018-Jan-22 11:30N 48°57' W 125°33'0 0.0
2018-Jan-22 11:00N 48°57' W 125°33'0 0.0
2018-Jan-22 10:30N 48°57' W 125°33'0 0.0
2018-Jan-22 10:00N 48°57' W 125°33'0 0.0
2018-Jan-22 09:30N 48°57' W 125°33'0 0.0
2018-Jan-22 09:00N 48°57' W 125°33'0 0.0
2018-Jan-22 08:30N 48°57' W 125°33'0 0.0
2018-Jan-22 08:00N 48°57' W 125°33'0 0.0
2018-Jan-22 07:30N 48°57' W 125°33'0 0.0
2018-Jan-22 07:00N 48°57' W 125°33'0 0.0
2018-Jan-22 06:30N 48°57' W 125°33'0 0.0
2018-Jan-22 06:00N 48°57' W 125°33'0 0.0
2018-Jan-22 05:30N 48°57' W 125°33'0 0.0
2018-Jan-22 05:00N 48°57' W 125°33'0 0.0
2018-Jan-22 04:30N 48°57' W 125°33'0 0.0
2018-Jan-22 04:00N 48°57' W 125°33'0 0.0
2018-Jan-22 03:30N 48°57' W 125°33'0 0.0
2018-Jan-22 03:00N 48°57' W 125°33'0 0.0
2018-Jan-22 02:30N 48°57' W 125°33'0 0.0
2018-Jan-22 02:00N 48°57' W 125°33'0 0.0
2018-Jan-22 01:30N 48°57' W 125°33'0 0.0
2018-Jan-22 01:00N 48°57' W 125°33'0 0.0
2018-Jan-22 00:30N 48°57' W 125°33'0 0.0
2018-Jan-22 00:00N 48°57' W 125°33'0 0.0
2018-Jan-21 23:30N 48°57' W 125°33'0 0.0
2018-Jan-21 23:00N 48°57' W 125°33'0 0.0
2018-Jan-21 22:30N 48°57' W 125°33'0 0.0
2018-Jan-21 22:00N 48°57' W 125°33'0 0.0
2018-Jan-21 21:30N 48°57' W 125°33'0 0.0
2018-Jan-21 21:00N 48°57' W 125°33'0 0.0
2018-Jan-21 20:30N 48°57' W 125°33'0 0.0
2018-Jan-21 20:00N 48°57' W 125°33'0 0.0
2018-Jan-21 19:30N 48°57' W 125°33'0 0.0
2018-Jan-21 19:00N 48°57' W 125°33'0 0.0
2018-Jan-21 18:30N 48°57' W 125°33'0 0.0
2018-Jan-21 18:00N 48°57' W 125°33'0 0.0
2018-Jan-21 17:30N 48°57' W 125°33'0 0.0
2018-Jan-21 17:00N 48°57' W 125°33'0 0.0
2018-Jan-21 16:30N 48°57' W 125°33'0 0.0
2018-Jan-21 16:00N 48°57' W 125°33'0 0.0
2018-Jan-21 15:30N 48°57' W 125°33'0 0.0
2018-Jan-21 15:00N 48°57' W 125°33'0 0.0
2018-Jan-21 14:30N 48°57' W 125°33'0 0.0
2018-Jan-21 14:00N 48°57' W 125°33'0 0.0
2018-Jan-21 13:30N 48°57' W 125°33'0 0.0
2018-Jan-21 13:00N 48°57' W 125°33'0 0.0
2018-Jan-21 12:30N 48°57' W 125°33'0 0.0
2018-Jan-21 12:00N 48°57' W 125°33'0 0.0
2018-Jan-21 11:30N 48°57' W 125°33'0 0.0
2018-Jan-21 11:00N 48°57' W 125°33'0 0.0
2018-Jan-21 10:30N 48°57' W 125°33'0 0.0
2018-Jan-21 10:00N 48°57' W 125°33'0 0.0
2018-Jan-21 09:30N 48°57' W 125°33'0 0.0
2018-Jan-21 09:00N 48°57' W 125°33'0 0.0
2018-Jan-21 08:30N 48°57' W 125°33'0 0.0
2018-Jan-21 08:00N 48°57' W 125°33'0 0.0
2018-Jan-21 07:30N 48°57' W 125°33'0 0.0
2018-Jan-21 07:00N 48°57' W 125°33'0 0.0
2018-Jan-21 06:30N 48°57' W 125°33'0 0.0
2018-Jan-21 06:00N 48°57' W 125°33'0 0.0
2018-Jan-21 05:30N 48°57' W 125°33'0 0.0
2018-Jan-21 05:00N 48°57' W 125°33'0 0.0
2018-Jan-21 04:30N 48°57' W 125°33'0 0.0
2018-Jan-21 04:00N 48°57' W 125°33'0 0.0
2018-Jan-21 03:30N 48°57' W 125°33'0 0.0
2018-Jan-21 03:00N 48°57' W 125°33'0 0.0
2018-Jan-21 02:30N 48°57' W 125°33'0 0.0
2018-Jan-21 02:00N 48°57' W 125°33'0 0.0
2018-Jan-21 01:30N 48°57' W 125°33'0 0.0
2018-Jan-21 01:00N 48°57' W 125°33'0 0.0
2018-Jan-21 00:30N 48°57' W 125°33'0 0.0
2018-Jan-21 00:00N 48°57' W 125°33'0 0.0
2018-Jan-20 23:30N 48°57' W 125°33'0 0.0
2018-Jan-20 23:00N 48°57' W 125°33'0 0.0
2018-Jan-20 22:30N 48°57' W 125°33'0 0.0
2018-Jan-20 22:00N 48°57' W 125°33'0 0.0
2018-Jan-20 21:30N 48°57' W 125°33'0 0.0
2018-Jan-20 21:00N 48°57' W 125°33'0 0.0
2018-Jan-20 20:30N 48°57' W 125°33'0 0.0
2018-Jan-20 20:00N 48°57' W 125°33'0 0.0
2018-Jan-20 19:30N 48°57' W 125°33'0 0.0
2018-Jan-20 19:00N 48°57' W 125°33'0 0.0
2018-Jan-20 18:30N 48°57' W 125°33'0 0.0
2018-Jan-20 18:00N 48°57' W 125°33'0 0.0
2018-Jan-20 17:30N 48°57' W 125°33'0 0.0
2018-Jan-20 17:00N 48°57' W 125°33'0 0.0
2018-Jan-20 16:30N 48°57' W 125°33'0 0.0
2018-Jan-20 16:00N 48°57' W 125°33'0 0.0
2018-Jan-20 15:30N 48°57' W 125°33'0 0.0
2018-Jan-20 15:00N 48°57' W 125°33'0 0.0
2018-Jan-20 14:30N 48°57' W 125°33'0 0.0
2018-Jan-20 14:00N 48°57' W 125°33'0 0.0
2018-Jan-20 13:30N 48°57' W 125°33'0 0.0
2018-Jan-20 13:00N 48°57' W 125°33'0 0.0
2018-Jan-20 12:30N 48°57' W 125°33'0 0.0
2018-Jan-20 12:00N 48°57' W 125°33'0 0.0
2018-Jan-20 11:30N 48°57' W 125°33'0 0.0
2018-Jan-20 11:00N 48°57' W 125°33'0 0.0
2018-Jan-20 10:30N 48°57' W 125°33'0 0.0
2018-Jan-20 10:00N 48°57' W 125°33'0 0.0
2018-Jan-20 09:30N 48°57' W 125°33'0 0.0
2018-Jan-20 09:00N 48°57' W 125°33'0 0.0
2018-Jan-20 08:30N 48°57' W 125°33'0 0.0
2018-Jan-20 08:00N 48°57' W 125°33'0 0.0
2018-Jan-20 07:30N 48°57' W 125°33'0 0.0
2018-Jan-20 07:00N 48°57' W 125°33'0 0.0
2018-Jan-20 06:30N 48°57' W 125°33'0 0.0
2018-Jan-20 06:00N 48°57' W 125°33'0 0.0
2018-Jan-20 05:30N 48°57' W 125°33'0 0.0
2018-Jan-20 05:00N 48°57' W 125°33'0 0.0
2018-Jan-20 04:30N 48°57' W 125°33'0 0.0
2018-Jan-20 04:00N 48°57' W 125°33'0 0.0
2018-Jan-20 03:30N 48°57' W 125°33'0 0.0
2018-Jan-20 03:00N 48°57' W 125°33'0 0.0
2018-Jan-20 02:30N 48°57' W 125°33'0 0.0
2018-Jan-20 02:00N 48°57' W 125°33'0 0.0
2018-Jan-20 01:30N 48°57' W 125°33'0 0.0
2018-Jan-20 01:00N 48°57' W 125°33'0 0.0
2018-Jan-20 00:30N 48°57' W 125°33'0 0.0
2018-Jan-19 23:44N 48°57' W 125°33'0 0.0
2018-Jan-19 23:30N 48°57' W 125°33'0 0.0
2018-Jan-19 23:00N 48°57' W 125°33'0 0.0
2018-Jan-19 22:30N 48°57' W 125°33'0 0.0
2018-Jan-19 22:00N 48°57' W 125°33'0 0.0
2018-Jan-19 21:30N 48°57' W 125°33'0 0.0
2018-Jan-19 21:00N 48°57' W 125°33'0 0.0
2018-Jan-19 20:30N 48°57' W 125°33'0 0.0
2018-Jan-19 20:00N 48°57' W 125°33'0 0.0
2018-Jan-19 19:30N 48°57' W 125°33'0 0.0
2018-Jan-19 19:00N 48°57' W 125°33'0 0.0
2018-Jan-19 18:30N 48°57' W 125°33'0 0.0
2018-Jan-19 18:00N 48°57' W 125°33'0 0.0
2018-Jan-19 17:30N 48°57' W 125°33'0 0.0
2018-Jan-19 17:00N 48°57' W 125°33'0 0.0
2018-Jan-19 16:30N 48°57' W 125°33'0 0.0
2018-Jan-19 16:00N 48°57' W 125°33'0 0.0
2018-Jan-19 15:30N 48°57' W 125°33'0 0.0
2018-Jan-19 15:00N 48°57' W 125°33'0 0.0
2018-Jan-19 14:30N 48°57' W 125°33'0 0.0
2018-Jan-19 14:00N 48°57' W 125°33'0 0.0
2018-Jan-19 13:30N 48°57' W 125°33'0 0.0
2018-Jan-19 13:00N 48°57' W 125°33'0 0.0
2018-Jan-19 12:30N 48°57' W 125°33'0 0.0
2018-Jan-19 12:00N 48°57' W 125°33'0 0.0
2018-Jan-19 11:30N 48°57' W 125°33'0 0.0
2018-Jan-19 11:00N 48°57' W 125°33'0 0.0
2018-Jan-19 10:30N 48°57' W 125°33'0 0.0
2018-Jan-19 10:00N 48°57' W 125°33'0 0.0
2018-Jan-19 09:30N 48°57' W 125°33'0 0.0
2018-Jan-19 09:00N 48°57' W 125°33'0 0.0
2018-Jan-19 08:30N 48°57' W 125°33'0 0.0
2018-Jan-19 08:00N 48°57' W 125°33'0 0.0
2018-Jan-19 07:30N 48°57' W 125°33'0 0.0
2018-Jan-19 07:00N 48°57' W 125°33'0 0.0
2018-Jan-19 06:30N 48°57' W 125°33'0 0.0
2018-Jan-19 06:00N 48°57' W 125°33'0 0.0
2018-Jan-19 05:30N 48°57' W 125°33'0 0.0
2018-Jan-19 05:00N 48°57' W 125°33'0 0.0
2018-Jan-19 04:30N 48°57' W 125°33'0 0.0
2018-Jan-19 04:00N 48°57' W 125°33'0 0.0
2018-Jan-19 03:30N 48°57' W 125°33'0 0.0
2018-Jan-19 03:00N 48°57' W 125°33'0 0.0
2018-Jan-19 02:30N 48°57' W 125°33'0 0.0
2018-Jan-19 02:00N 48°57' W 125°33'0 0.0
2018-Jan-19 01:30N 48°57' W 125°33'0 0.0
2018-Jan-19 01:00N 48°57' W 125°33'0 0.0
2018-Jan-19 00:30N 48°57' W 125°33'0 0.0
2018-Jan-19 00:00N 48°57' W 125°33'0 0.0
2018-Jan-18 23:30N 48°57' W 125°33'0 0.0
2018-Jan-18 23:00N 48°57' W 125°33'0 0.0
2018-Jan-18 22:30N 48°57' W 125°33'0 0.0
2018-Jan-18 22:00N 48°57' W 125°33'0 0.0
2018-Jan-18 21:30N 48°57' W 125°33'0 0.0
2018-Jan-18 21:00N 48°57' W 125°33'0 0.0
2018-Jan-18 20:30N 48°57' W 125°33'0 0.0
2018-Jan-18 20:00N 48°57' W 125°33'0 0.0
2018-Jan-18 19:30N 48°57' W 125°33'0 0.0
2018-Jan-18 19:00N 48°57' W 125°33'0 0.0
2018-Jan-18 18:30N 48°57' W 125°33'0 0.0
2018-Jan-18 18:00N 48°57' W 125°33'0 0.0
2018-Jan-18 17:30N 48°57' W 125°33'0 0.0
2018-Jan-18 17:00N 48°57' W 125°33'0 0.0
2018-Jan-18 16:30N 48°57' W 125°33'  

Dump ship's entire track history